Time;durP1;ratioP1;P1;durP2;ratioP2;P2;SDS_P1;SDS_P2;PMS_P1;PMS_P2;Temp;Humidity;BMP_temperature;BMP_pressure;BME280_temperature;BME280_humidity;BME280_pressure;Samples;Min_cycle;Max_cycle;Signal;HPM_P1;HPM_P2
2022/10/04 00:01:05;;;;;;;3.33;1.50;;;;;;;12.58;100.00;98966.19;2633952;28;20056;-91
2022/10/04 00:02:27;;;;;;;4.28;1.80;;;;;;;12.47;100.00;98958.59;2634212;28;20048;-88
2022/10/04 00:03:46;;;;;;;2.80;1.42;;;;;;;12.48;100.00;98960.34;2635452;28;20051;-88
2022/10/04 00:05:12;;;;;;;2.28;1.55;;;;;;;12.51;100.00;98959.41;2634117;28;20631;-87
2022/10/04 00:06:28;;;;;;;4.13;1.50;;;;;;;12.57;100.00;98951.31;2622000;28;20514;-87
2022/10/04 00:07:48;;;;;;;6.38;1.70;;;;;;;12.65;100.00;98959.00;2626633;28;20044;-87
2022/10/04 00:09:14;;;;;;;2.63;1.48;;;;;;;12.54;100.00;98954.06;2633993;28;20056;-87
2022/10/04 00:10:32;;;;;;;4.18;1.77;;;;;;;12.42;100.00;98949.97;2631866;28;20414;-88
2022/10/04 00:11:51;;;;;;;4.40;1.70;;;;;;;12.55;100.00;98953.13;2633176;28;20058;-87
2022/10/04 00:13:16;;;;;;;4.72;1.60;;;;;;;12.54;100.00;98954.06;2634347;28;20560;-88
2022/10/04 00:14:38;;;;;;;2.97;2.22;;;;;;;12.40;100.00;98949.16;2633729;28;20062;-88
2022/10/04 00:15:53;;;;;;;3.30;1.55;;;;;;;12.26;100.00;98950.38;2635634;28;20074;-88
2022/10/04 00:17:12;;;;;;;4.63;1.50;;;;;;;12.18;100.00;98952.38;2632472;28;20048;-88
2022/10/04 00:18:36;;;;;;;5.85;2.10;;;;;;;12.46;100.00;98956.00;2632906;28;20143;-87
2022/10/04 00:19:53;;;;;;;2.78;1.70;;;;;;;12.38;100.00;98953.59;2633840;28;20893;-88
2022/10/04 00:21:08;;;;;;;3.75;1.60;;;;;;;12.25;100.00;98956.53;2631720;28;20076;-88
2022/10/04 00:22:31;;;;;;;2.47;1.60;;;;;;;12.49;100.00;98950.66;2631386;28;20551;-87
2022/10/04 00:23:47;;;;;;;3.38;1.65;;;;;;;12.43;100.00;98949.06;2632068;28;20090;-87
2022/10/04 00:25:12;;;;;;;3.72;1.70;;;;;;;12.35;100.00;98953.69;2633646;28;20542;-87
2022/10/04 00:26:27;;;;;;;4.30;1.80;;;;;;;12.14;100.00;98948.97;2631631;28;20087;-87
2022/10/04 00:28:20;;;;;;;4.10;2.03;;;;;;;12.43;100.00;98946.44;2631708;28;20800;-91
2022/10/04 00:29:39;;;;;;;6.72;1.65;;;;;;;12.35;100.00;98948.44;2632562;28;20406;-88
2022/10/04 00:31:19;;;;;;;5.97;1.80;;;;;;;12.34;100.00;98944.94;2633040;28;20044;-88
2022/10/04 00:32:45;;;;;;;7.30;2.13;;;;;;;12.21;100.00;98939.16;2631436;28;20083;-87
2022/10/04 00:34:07;;;;;;;3.75;1.73;;;;;;;12.32;100.00;98944.13;2634040;28;20052;-88
2022/10/04 00:35:25;;;;;;;3.88;1.63;;;;;;;12.17;100.00;98945.41;2634495;28;20101;-89
2022/10/04 00:36:47;;;;;;;5.35;1.85;;;;;;;12.09;100.00;98944.72;2633803;28;20052;-87
2022/10/04 00:38:05;;;;;;;3.55;1.75;;;;;;;12.07;100.00;98943.91;2635089;28;21089;-90
2022/10/04 00:39:33;;;;;;;4.03;1.63;;;;;;;12.18;100.00;98941.88;2633061;28;20051;-87
2022/10/04 00:40:55;;;;;;;5.35;1.45;;;;;;;11.99;100.00;98942.31;2633552;28;20505;-90
2022/10/04 00:42:49;;;;;;;4.97;1.67;;;;;;;12.05;100.00;98945.72;2631399;28;20223;-87
2022/10/04 00:44:08;;;;;;;;;;;;;;;12.33;100.00;98943.22;2633863;28;20047;-87
2022/10/04 00:45:26;;;;;;;4.32;2.03;;;;;;;12.29;100.00;98955.59;2635215;28;19936;-88
2022/10/04 00:46:44;;;;;;;4.13;1.60;;;;;;;12.39;100.00;98944.81;2634743;28;20069;-88
2022/10/04 00:48:07;;;;;;;4.68;1.98;;;;;;;12.43;100.00;98947.31;2631644;28;20048;-88
2022/10/04 00:49:28;;;;;;;2.10;1.50;;;;;;;12.20;100.00;98945.31;2631949;28;20456;-88
2022/10/04 00:50:51;;;;;;;3.42;1.60;;;;;;;12.47;100.00;98944.59;2634447;28;20052;-87
2022/10/04 00:52:14;;;;;;;4.90;1.73;;;;;;;12.15;100.00;98953.31;2634523;28;20406;-88
2022/10/04 00:53:50;;;;;;;2.75;1.83;;;;;;;12.33;100.00;98948.47;2631601;28;20487;-88
2022/10/04 00:55:08;;;;;;;2.80;1.70;;;;;;;12.31;100.00;98946.81;2632918;28;20079;-88
2022/10/04 00:56:42;;;;;;;3.67;1.80;;;;;;;12.40;100.00;98944.78;2634370;28;20108;-91
2022/10/04 00:58:01;;;;;;;5.43;1.80;;;;;;;12.44;100.00;98948.19;2632462;28;20052;-87
2022/10/04 00:59:17;;;;;;;5.25;2.03;;;;;;;12.46;100.00;98945.50;2632322;28;20044;-87
2022/10/04 01:00:35;;;;;;;3.40;1.75;;;;;;;12.50;100.00;98941.88;2633475;28;20047;-90
2022/10/04 01:01:59;;;;;;;7.38;1.70;;;;;;;12.65;100.00;98944.09;2633652;28;20047;-90
2022/10/04 01:03:25;;;;;;;4.35;1.80;;;;;;;12.76;100.00;98941.16;2631143;28;20051;-86
2022/10/04 01:05:09;;;;;;;2.03;1.55;;;;;;;12.58;100.00;98937.28;2631962;28;20173;-87
2022/10/04 01:06:26;;;;;;;5.32;1.88;;;;;;;12.63;100.00;98945.03;2631442;28;20048;-87
2022/10/04 01:07:51;;;;;;;3.40;2.00;;;;;;;12.65;100.00;98943.22;2632942;28;20078;-89
2022/10/04 01:09:09;;;;;;;3.67;1.70;;;;;;;12.57;100.00;98938.19;2633174;28;20051;-87
2022/10/04 01:10:38;;;;;;;5.35;2.13;;;;;;;12.71;100.00;98946.53;2631358;28;20259;-87
2022/10/04 01:12:06;;;;;;;3.45;1.88;;;;;;;12.49;100.00;98948.91;2631858;28;20052;-89
2022/10/04 01:13:37;;;;;;;3.38;1.90;;;;;;;12.64;100.00;98945.00;2631369;28;20097;-87
2022/10/04 01:15:07;;;;;;;4.78;1.77;;;;;;;12.59;100.00;98939.00;2632476;28;20048;-87
2022/10/04 01:16:29;;;;;;;4.75;1.75;;;;;;;12.77;100.00;98942.88;2632270;28;20130;-89
2022/10/04 01:18:08;;;;;;;3.17;1.73;;;;;;;12.86;100.00;98939.13;2634677;28;20058;-86
2022/10/04 01:19:24;;;;;;;5.93;2.00;;;;;;;12.91;100.00;98941.63;2632182;28;20047;-86
2022/10/04 01:20:48;;;;;;;2.72;1.80;;;;;;;12.66;100.00;98940.56;2632369;28;20058;-86
2022/10/04 01:22:09;;;;;;;3.15;1.80;;;;;;;12.28;100.00;98943.34;2632551;28;20130;-87
2022/10/04 01:23:36;;;;;;;2.97;1.77;;;;;;;12.48;100.00;98941.06;2631963;28;20346;-85
2022/10/04 01:24:52;;;;;;;6.35;1.95;;;;;;;12.64;100.00;98942.38;2632834;28;20071;-86
2022/10/04 01:26:31;;;;;;;3.58;1.70;;;;;;;12.62;100.00;98940.69;2632838;28;20051;-88
2022/10/04 01:27:47;;;;;;;4.57;1.85;;;;;;;12.74;100.00;98945.59;2615594;28;20048;-86
2022/10/04 01:29:08;;;;;;;2.88;1.67;;;;;;;12.55;100.00;98943.47;2630844;28;20067;-89
2022/10/04 01:30:24;;;;;;;4.25;1.90;;;;;;;12.76;100.00;98946.41;2631566;28;20055;-87
2022/10/04 01:31:45;;;;;;;4.85;1.70;;;;;;;12.79;100.00;98940.22;2631129;28;20495;-89
2022/10/04 01:33:02;;;;;;;2.95;1.70;;;;;;;12.71;100.00;98943.03;2632970;28;20437;-87
2022/10/04 01:34:21;;;;;;;5.65;1.90;;;;;;;12.48;100.00;98935.81;2631416;28;20104;-88
2022/10/04 01:35:36;;;;;;;5.25;1.70;;;;;;;12.19;100.00;98940.09;2631373;28;20054;-86
2022/10/04 01:36:55;;;;;;;3.88;1.52;;;;;;;12.35;100.00;98930.91;2631958;28;20590;-87
2022/10/04 01:38:11;;;;;;;5.85;1.63;;;;;;;12.35;100.00;98937.94;2632782;28;20449;-86
2022/10/04 01:39:27;;;;;;;2.78;1.60;;;;;;;12.37;100.00;98928.25;2631100;28;20530;-87
2022/10/04 01:40:54;;;;;;;4.82;1.98;;;;;;;12.33;100.00;98926.63;2632087;28;20226;-89
2022/10/04 01:42:17;;;;;;;3.72;1.67;;;;;;;12.27;100.00;98927.63;2630214;28;20051;-89
2022/10/04 01:43:38;;;;;;;3.90;1.60;;;;;;;12.24;100.00;98920.69;2631639;28;20055;-89
2022/10/04 01:45:08;;;;;;;2.42;1.52;;;;;;;12.36;100.00;98923.91;2630747;28;20103;-88
2022/10/04 01:46:33;;;;;;;5.00;1.77;;;;;;;12.48;100.00;98917.44;2630678;28;20056;-87
2022/10/04 01:47:56;;;;;;;4.72;1.88;;;;;;;12.59;100.00;98927.66;2630797;28;20514;-88
2022/10/04 01:49:17;;;;;;;3.28;1.90;;;;;;;12.66;100.00;98919.56;2630644;28;20052;-87
2022/10/04 01:50:44;;;;;;;4.55;1.65;;;;;;;12.45;100.00;98920.16;2632262;28;20051;-87
2022/10/04 01:52:04;;;;;;;3.88;1.70;;;;;;;12.47;100.00;98916.59;2631839;28;20105;-88
2022/10/04 01:53:26;;;;;;;3.40;1.85;;;;;;;12.52;100.00;98917.31;2631603;28;20547;-88
2022/10/04 01:54:45;;;;;;;4.70;1.83;;;;;;;12.54;100.00;98912.88;2631903;28;20503;-88
2022/10/04 01:56:15;;;;;;;4.03;1.88;;;;;;;12.54;100.00;98912.03;2632752;28;20043;-87
2022/10/04 01:57:36;;;;;;;2.75;1.58;;;;;;;12.57;100.00;98912.81;2631251;28;20048;-91
2022/10/04 01:58:59;;;;;;;3.95;1.70;;;;;;;12.38;100.00;98919.47;2631182;28;21179;-87
2022/10/04 02:00:15;;;;;;;6.18;1.90;;;;;;;12.36;100.00;98919.53;2630832;28;20060;-86
2022/10/04 02:01:58;;;;;;;5.32;1.70;;;;;;;12.34;100.00;98915.22;2632901;28;20193;-87
2022/10/04 02:03:19;;;;;;;5.50;1.80;;;;;;;12.42;100.00;98916.72;2631915;28;20166;-88
2022/10/04 02:04:38;;;;;;;3.87;1.80;;;;;;;12.56;100.00;98915.47;2633416;28;20063;-87
2022/10/04 02:05:59;;;;;;;4.20;2.00;;;;;;;12.68;100.00;98917.75;2631634;28;20056;-87
2022/10/04 02:07:15;;;;;;;3.38;1.75;;;;;;;12.50;100.00;98908.63;2630687;28;20181;-87
2022/10/04 02:08:34;;;;;;;3.72;1.98;;;;;;;12.56;100.00;98913.69;2630333;28;20055;-87
2022/10/04 02:09:55;;;;;;;3.92;1.75;;;;;;;12.45;100.00;98904.41;2632171;28;20130;-86
2022/10/04 02:11:19;;;;;;;3.97;1.88;;;;;;;12.35;100.00;98911.69;2631568;28;20056;-87
2022/10/04 02:12:37;;;;;;;4.97;1.80;;;;;;;12.23;100.00;98910.25;2634374;28;20559;-90
2022/10/04 02:13:54;;;;;;;3.53;1.90;;;;;;;12.03;100.00;98905.53;2633476;28;20052;-88
2022/10/04 02:15:10;;;;;;;3.38;1.70;;;;;;;12.14;100.00;98911.34;2633487;28;20046;-87
2022/10/04 02:16:26;;;;;;;5.38;2.00;;;;;;;12.32;100.00;98912.63;2632901;28;20051;-89
2022/10/04 02:17:43;;;;;;;3.28;1.70;;;;;;;12.27;100.00;98914.50;2631247;28;20677;-88
2022/10/04 02:18:59;;;;;;;2.83;1.85;;;;;;;12.27;100.00;98912.72;2632740;28;20941;-86
2022/10/04 02:20:19;;;;;;;3.30;1.58;;;;;;;12.37;100.00;98908.13;2631530;28;20198;-89
2022/10/04 02:21:36;;;;;;;3.10;1.90;;;;;;;12.26;100.00;98910.16;2632461;28;20058;-90
2022/10/04 02:22:58;;;;;;;3.95;2.00;;;;;;;12.31;100.00;98912.66;2630552;28;20043;-87
2022/10/04 02:24:14;;;;;;;3.85;2.20;;;;;;;12.48;100.00;98909.56;2633180;28;20376;-87
2022/10/04 02:25:30;;;;;;;4.65;1.67;;;;;;;12.08;100.00;98912.41;2632143;28;20051;-87
2022/10/04 02:26:52;;;;;;;3.92;1.70;;;;;;;12.22;100.00;98914.63;2631932;28;20048;-88
2022/10/04 02:28:33;;;;;;;4.22;1.80;;;;;;;12.32;100.00;98917.03;2632674;28;20040;-87
2022/10/04 02:30:07;;;;;;;3.60;2.00;;;;;;;12.21;100.00;98919.91;2619258;28;20060;-86
2022/10/04 02:32:59;;;;;;;5.85;1.60;;;;;;;12.27;100.00;98917.97;2632747;28;20093;-87
2022/10/04 02:34:18;;;;;;;3.97;2.10;;;;;;;12.30;100.00;98919.69;2630229;28;20093;-87
2022/10/04 02:35:37;;;;;;;3.30;1.83;;;;;;;12.25;100.00;98919.78;2632820;28;20486;-86
2022/10/04 02:36:53;;;;;;;5.93;2.10;;;;;;;12.31;100.00;98916.16;2630632;28;20395;-86
2022/10/04 02:38:21;;;;;;;5.45;2.10;;;;;;;12.51;100.00;98912.97;2631698;28;20054;-87
2022/10/04 02:39:44;;;;;;;3.80;1.73;;;;;;;12.59;100.00;98907.50;2632604;28;20051;-85
2022/10/04 02:41:30;;;;;;;4.25;1.90;;;;;;;12.41;100.00;98908.88;2633362;28;20102;-86
2022/10/04 02:43:13;;;;;;;6.60;1.80;;;;;;;12.39;100.00;98913.31;2620267;28;20054;-86
2022/10/04 02:44:32;;;;;;;6.85;1.63;;;;;;;12.35;100.00;98915.16;2630083;28;20545;-87
2022/10/04 02:45:54;;;;;;;3.42;2.03;;;;;;;12.35;100.00;98916.94;2631249;28;20047;-87
2022/10/04 02:47:28;;;;;;;5.43;1.90;;;;;;;12.36;100.00;98923.91;2632142;28;20578;-86
2022/10/04 02:48:52;;;;;;;4.72;1.70;;;;;;;12.28;100.00;98909.19;2631711;28;20380;-85
2022/10/04 02:50:36;;;;;;;3.03;1.85;;;;;;;12.36;100.00;98909.03;2631066;28;20426;-86
2022/10/04 02:51:57;;;;;;;5.15;2.30;;;;;;;12.42;100.00;98907.97;2610735;28;20685;-87
2022/10/04 02:53:22;;;;;;;10.90;2.15;;;;;;;12.40;100.00;98909.78;2624930;28;20063;-87
2022/10/04 02:54:44;;;;;;;4.82;2.15;;;;;;;12.47;100.00;98908.72;2632534;28;20055;-87
2022/10/04 02:56:01;;;;;;;4.35;1.73;;;;;;;12.57;100.00;98904.06;2632680;28;20048;-88
2022/10/04 02:57:22;;;;;;;4.63;2.00;;;;;;;12.57;100.00;98896.16;2632954;28;20486;-86
2022/10/04 02:58:39;;;;;;;4.82;1.50;;;;;;;12.35;100.00;98899.41;2619373;28;20052;-85
2022/10/04 03:00:19;;;;;;;4.25;1.80;;;;;;;12.24;100.00;98901.47;2625629;28;20063;-86
2022/10/04 03:01:56;;;;;;;6.82;2.00;;;;;;;12.31;100.00;98903.00;2632070;28;20097;-85
2022/10/04 03:03:30;;;;;;;5.43;1.80;;;;;;;12.32;100.00;98902.09;2633894;28;20052;-87
2022/10/04 03:04:48;;;;;;;3.78;1.63;;;;;;;12.24;100.00;98901.47;2632871;28;20568;-87
2022/10/04 03:06:08;;;;;;;5.97;2.47;;;;;;;12.18;100.00;98901.63;2632667;28;20109;-86
2022/10/04 03:07:25;;;;;;;7.97;1.80;;;;;;;12.36;100.00;98903.78;2630468;28;20101;-87
2022/10/04 03:08:54;;;;;;;5.28;1.63;;;;;;;12.27;100.00;98904.84;2633358;28;20047;-87
2022/10/04 03:10:12;;;;;;;2.72;1.58;;;;;;;12.51;100.00;98905.09;2630581;28;20104;-86
2022/10/04 03:11:35;;;;;;;3.10;1.75;;;;;;;12.55;100.00;98905.88;2632098;28;20058;-86
2022/10/04 03:12:52;;;;;;;3.45;1.67;;;;;;;12.55;100.00;98906.72;2632858;28;20070;-86
2022/10/04 03:14:21;;;;;;;3.78;1.90;;;;;;;12.66;100.00;98902.91;2632093;28;20067;-86
2022/10/04 03:15:38;;;;;;;2.40;1.50;;;;;;;12.47;100.00;98899.97;2632242;28;20048;-87
2022/10/04 03:16:59;;;;;;;3.92;1.60;;;;;;;12.59;100.00;98899.59;2631357;28;20075;-86
2022/10/04 03:18:16;;;;;;;3.10;1.80;;;;;;;12.69;100.00;98902.81;2631749;28;20102;-85
2022/10/04 03:19:33;;;;;;;2.67;1.70;;;;;;;12.54;100.00;98901.50;2632036;28;20043;-86
2022/10/04 03:20:49;;;;;;;4.32;1.80;;;;;;;12.56;100.00;98895.28;2630479;28;20055;-86
2022/10/04 03:22:10;;;;;;;3.28;1.73;;;;;;;12.44;100.00;98895.69;2630712;28;20501;-86
2022/10/04 03:23:29;;;;;;;7.32;1.90;;;;;;;12.40;100.00;98896.66;2630434;28;20078;-86
2022/10/04 03:24:49;;;;;;;4.70;1.48;;;;;;;12.26;100.00;98892.63;2632419;28;20051;-86
2022/10/04 03:26:04;;;;;;;2.85;1.52;;;;;;;12.31;100.00;98891.66;2631200;28;20094;-85
2022/10/04 03:27:33;;;;;;;2.85;1.50;;;;;;;12.12;100.00;98892.16;2632426;28;20044;-85
2022/10/04 03:28:48;;;;;;;3.35;1.98;;;;;;;12.06;100.00;98895.81;2631186;28;20498;-85
2022/10/04 03:30:05;;;;;;;3.05;1.90;;;;;;;11.94;100.00;98886.47;2630471;28;20052;-85
2022/10/04 03:31:21;;;;;;;7.05;2.30;;;;;;;11.78;100.00;98886.00;2629630;28;20075;-85
2022/10/04 03:32:38;;;;;;;5.18;2.65;;;;;;;11.66;100.00;98889.81;2631789;28;20051;-86
2022/10/04 03:33:56;;;;;;;6.85;2.70;;;;;;;11.71;100.00;98889.69;2630134;28;20056;-89
2022/10/04 03:35:28;;;;;;;2.90;1.90;;;;;;;11.67;100.00;98893.31;2631914;28;20051;-87
2022/10/04 03:36:46;;;;;;;6.00;2.15;;;;;;;11.80;100.00;98885.97;2633035;28;20671;-84
2022/10/04 03:38:07;;;;;;;4.90;2.05;;;;;;;11.88;100.00;98886.66;2632921;28;20437;-85
2022/10/04 03:39:31;;;;;;;2.97;1.90;;;;;;;11.94;100.00;98885.59;2631399;28;20095;-86
2022/10/04 03:40:55;;;;;;;2.60;1.65;;;;;;;11.85;100.00;98884.97;2632597;28;20091;-86
2022/10/04 03:42:17;;;;;;;3.90;1.80;;;;;;;11.78;100.00;98896.50;2631153;28;20048;-86
2022/10/04 03:43:43;;;;;;;;;;;;;;;11.72;100.00;98892.25;2630378;28;20789;-86
2022/10/04 03:45:04;;;;;;;3.00;1.80;;;;;;;11.80;100.00;98891.22;2630337;28;20256;-86
2022/10/04 03:46:22;;;;;;;5.97;3.10;;;;;;;11.85;100.00;98887.56;2630228;28;20044;-87
2022/10/04 03:47:42;;;;;;;6.10;3.20;;;;;;;11.97;100.00;98891.63;2633341;28;20047;-86
2022/10/04 03:48:58;;;;;;;6.10;3.15;;;;;;;11.94;100.00;98894.34;2632035;28;20048;-86
2022/10/04 03:50:33;;;;;;;8.55;2.60;;;;;;;12.00;100.00;98894.16;2630811;28;20067;-86
2022/10/04 03:51:49;;;;;;;6.47;2.70;;;;;;;11.94;100.00;98896.09;2631158;28;20132;-86
2022/10/04 03:53:16;;;;;;;3.83;2.55;;;;;;;11.88;100.00;98899.75;2630852;28;20048;-84
2022/10/04 03:54:32;;;;;;;3.80;2.13;;;;;;;11.80;100.00;98892.06;2631811;28;20083;-84
2022/10/04 03:55:48;;;;;;;7.28;1.98;;;;;;;11.78;100.00;98898.28;2633123;28;20093;-86
2022/10/04 03:57:04;;;;;;;3.65;1.90;;;;;;;11.75;100.00;98900.97;2621555;28;20144;-85
2022/10/04 03:58:24;;;;;;;3.20;1.60;;;;;;;11.70;100.00;98896.69;2625830;28;20074;-85
2022/10/04 03:59:40;;;;;;;5.97;2.13;;;;;;;11.64;100.00;98891.63;2631644;28;20070;-84
2022/10/04 04:01:01;;;;;;;3.83;1.98;;;;;;;11.52;100.00;98890.13;2634026;28;20047;-85
2022/10/04 04:02:35;;;;;;;6.55;1.80;;;;;;;11.65;100.00;98890.72;2634047;28;20504;-86
2022/10/04 04:04:23;;;;;;;2.63;1.58;;;;;;;11.68;100.00;98898.50;2633411;28;20044;-86
2022/10/04 04:05:46;;;;;;;7.60;1.67;;;;;;;11.79;100.00;98894.75;2599817;28;20055;-85
2022/10/04 04:07:05;;;;;;;3.42;1.60;;;;;;;11.79;100.00;98889.50;2632866;28;20162;-86
2022/10/04 04:08:38;;;;;;;2.95;1.90;;;;;;;11.83;100.00;98896.38;2631839;28;20048;-85
2022/10/04 04:10:26;;;;;;;3.15;1.60;;;;;;;11.71;100.00;98893.16;2633994;28;20058;-84
2022/10/04 04:11:43;;;;;;;5.88;1.92;;;;;;;11.63;100.00;98889.00;2635759;28;20040;-84
2022/10/04 04:13:05;;;;;;;4.53;1.98;;;;;;;11.44;100.00;98898.19;2632290;28;20043;-84
2022/10/04 04:14:26;;;;;;;6.15;1.80;;;;;;;11.29;100.00;98895.94;2631743;28;20076;-84
2022/10/04 04:15:44;;;;;;;6.25;1.88;;;;;;;11.18;100.00;98895.34;2633172;28;20052;-85
2022/10/04 04:17:24;;;;;;;3.67;2.00;;;;;;;11.24;100.00;98903.91;2632983;28;20677;-85
2022/10/04 04:18:42;;;;;;;3.08;1.73;;;;;;;11.32;100.00;98893.28;2631689;28;20468;-84
2022/10/04 04:20:02;;;;;;;4.45;2.00;;;;;;;11.26;100.00;98898.63;2631729;28;20477;-85
2022/10/04 04:21:23;;;;;;;2.97;2.00;;;;;;;11.46;100.00;98894.69;2620632;28;20095;-85
2022/10/04 04:22:42;;;;;;;3.42;2.03;;;;;;;11.53;100.00;98898.88;2626560;28;20052;-85
2022/10/04 04:24:07;;;;;;;3.03;1.83;;;;;;;11.52;100.00;98900.63;2634343;28;20482;-85
2022/10/04 04:25:24;;;;;;;4.82;2.42;;;;;;;11.55;100.00;98894.44;2631679;28;20067;-85
2022/10/04 04:26:44;;;;;;;2.35;1.58;;;;;;;11.53;100.00;98894.50;2633247;28;20055;-85
2022/10/04 04:28:25;;;;;;;3.33;1.95;;;;;;;11.56;100.00;98894.44;2633135;28;20052;-85
2022/10/04 04:29:49;;;;;;;4.13;1.90;;;;;;;11.61;100.00;98896.06;2634099;28;20051;-86
2022/10/04 04:31:22;;;;;;;3.67;1.90;;;;;;;11.67;100.00;98901.19;2634948;28;20048;-86
2022/10/04 04:32:44;;;;;;;4.75;2.53;;;;;;;11.58;100.00;98897.00;2633775;28;20502;-87
2022/10/04 04:34:03;;;;;;;4.50;2.08;;;;;;;11.63;100.00;98899.50;2632225;28;20075;-89
2022/10/04 04:35:23;;;;;;;3.83;2.00;;;;;;;11.67;100.00;98906.41;2633194;28;20084;-86
2022/10/04 04:36:40;;;;;;;3.67;2.25;;;;;;;11.63;100.00;98905.63;2633151;28;20550;-87
2022/10/04 04:38:03;;;;;;;2.97;2.67;;;;;;;11.61;100.00;98901.31;2634838;28;20518;-89
2022/10/04 04:39:42;;;;;;;5.13;2.83;;;;;;;11.54;100.00;98905.84;2633112;28;20047;-86
2022/10/04 04:41:08;;;;;;;5.97;3.53;;;;;;;11.70;100.00;98901.09;2632298;28;20047;-86
2022/10/04 04:42:33;;;;;;;6.22;3.30;;;;;;;11.70;100.00;98896.69;2634219;28;20060;-87
2022/10/04 04:43:50;;;;;;;4.25;2.90;;;;;;;11.74;100.00;98897.47;2632249;28;20079;-87
2022/10/04 04:45:14;;;;;;;5.05;2.97;;;;;;;11.75;100.00;98907.06;2633384;28;20048;-87
2022/10/04 04:46:30;;;;;;;4.22;3.00;;;;;;;11.69;100.00;98899.38;2632550;28;20079;-86
2022/10/04 04:47:51;;;;;;;5.55;2.40;;;;;;;11.76;100.00;98895.69;2633315;28;20522;-86
2022/10/04 04:49:11;;;;;;;3.38;2.20;;;;;;;11.69;100.00;98902.84;2632028;28;20096;-87
2022/10/04 04:50:36;;;;;;;5.00;2.17;;;;;;;11.70;100.00;98901.09;2632789;28;20052;-88
2022/10/04 04:51:52;;;;;;;3.92;2.60;;;;;;;11.65;100.00;98898.56;2631398;28;20081;-88
2022/10/04 04:53:15;;;;;;;4.30;2.70;;;;;;;11.74;100.00;98900.09;2632306;28;20067;-88
2022/10/04 04:54:31;;;;;;;8.10;3.13;;;;;;;11.85;100.00;98907.69;2631873;28;20452;-92
2022/10/04 04:55:59;;;;;;;5.10;2.95;;;;;;;11.82;100.00;98905.16;2633605;28;20113;-85
2022/10/04 04:57:16;;;;;;;5.10;2.80;;;;;;;11.91;100.00;98907.53;2632901;28;20051;-86
2022/10/04 04:58:35;;;;;;;4.90;3.08;;;;;;;11.92;100.00;98905.78;2632352;28;20044;-86
2022/10/04 04:59:58;;;;;;;5.45;2.95;;;;;;;11.92;100.00;98905.78;2631673;28;20044;-84
2022/10/04 05:01:30;;;;;;;4.72;2.65;;;;;;;11.79;100.00;98907.88;2633621;28;20463;-86
2022/10/04 05:02:53;;;;;;;6.50;2.40;;;;;;;11.79;100.00;98911.31;2621057;28;20048;-85
2022/10/04 05:04:11;;;;;;;2.40;2.10;;;;;;;11.83;100.00;98914.75;2628193;28;20040;-86
2022/10/04 05:05:29;;;;;;;3.00;2.10;;;;;;;11.84;100.00;98913.84;2631129;28;20328;-85
2022/10/04 05:07:00;;;;;;;5.93;2.33;;;;;;;11.91;100.00;98915.41;2631203;28;21136;-89
2022/10/04 05:08:20;;;;;;;7.53;1.88;;;;;;;11.81;100.00;98916.53;2634159;28;20059;-85
2022/10/04 05:09:37;;;;;;;3.80;2.00;;;;;;;11.84;100.00;98906.84;2631705;28;20159;-86
2022/10/04 05:11:08;;;;;;;5.38;2.28;;;;;;;11.87;100.00;98917.25;2634711;28;20579;-86
2022/10/04 05:12:24;;;;;;;6.15;2.00;;;;;;;11.99;100.00;98923.94;2633845;28;20572;-86
2022/10/04 05:13:48;;;;;;;5.85;2.22;;;;;;;11.96;100.00;98917.94;2633810;28;20051;-88
2022/10/04 05:15:04;;;;;;;5.10;2.20;;;;;;;11.98;100.00;98927.47;2632794;28;20402;-84
2022/10/04 05:16:23;;;;;;;6.03;2.25;;;;;;;12.03;100.00;98924.75;2633913;28;20048;-86
2022/10/04 05:17:38;;;;;;;5.32;2.08;;;;;;;12.09;100.00;98923.75;2631833;28;20045;-86
2022/10/04 05:19:12;;;;;;;4.57;2.03;;;;;;;12.07;100.00;98921.16;2631461;28;20062;-86
2022/10/04 05:20:30;;;;;;;3.53;1.77;;;;;;;12.09;100.00;98919.38;2633109;28;20074;-86
2022/10/04 05:21:47;;;;;;;5.80;2.67;;;;;;;12.13;100.00;98926.25;2629854;28;20036;-85
2022/10/04 05:23:03;;;;;;;6.07;2.78;;;;;;;11.97;100.00;98919.66;2632167;28;20055;-85
2022/10/04 05:24:29;;;;;;;4.38;2.42;;;;;;;12.06;100.00;98923.81;2632206;28;20081;-86
2022/10/04 05:25:46;;;;;;;8.50;3.03;;;;;;;12.08;100.00;98932.50;2632197;28;20614;-85
2022/10/04 05:27:16;;;;;;;5.75;2.30;;;;;;;12.04;100.00;98931.72;2631520;28;20040;-85
2022/10/04 05:28:32;;;;;;;5.97;2.30;;;;;;;12.04;100.00;98926.47;2630406;28;20089;-88
2022/10/04 05:29:54;;;;;;;5.47;2.33;;;;;;;12.14;100.00;98930.59;2632831;28;20048;-86
2022/10/04 05:31:26;;;;;;;5.65;2.58;;;;;;;12.13;100.00;98926.25;2630375;28;20036;-86
2022/10/04 05:33:08;;;;;;;8.15;2.20;;;;;;;12.28;100.00;98922.31;2632644;28;20478;-86
2022/10/04 05:34:40;;;;;;;3.58;2.15;;;;;;;12.32;100.00;98927.53;2630974;28;20051;-86
2022/10/04 05:36:10;;;;;;;6.82;2.50;;;;;;;12.37;100.00;98923.00;2633260;28;20508;-87
2022/10/04 05:37:51;;;;;;;4.78;2.10;;;;;;;12.26;100.00;98923.28;2630539;28;20433;-85
2022/10/04 05:39:11;;;;;;;6.57;2.38;;;;;;;12.17;100.00;98923.53;2632316;28;20048;-87
2022/10/04 05:40:43;;;;;;;4.40;2.38;;;;;;;12.18;100.00;98920.00;2630962;28;20524;-88
2022/10/04 05:42:25;;;;;;;9.15;2.17;;;;;;;12.07;100.00;98926.38;2631232;28;20039;-88
2022/10/04 05:43:51;;;;;;;3.73;2.20;;;;;;;12.16;100.00;98930.56;2630985;28;20081;-91
2022/10/04 05:45:16;;;;;;;4.72;2.35;;;;;;;12.28;100.00;98930.22;2631940;28;20468;-87
2022/10/04 05:46:35;;;;;;;3.75;2.10;;;;;;;12.41;100.00;98927.25;2631847;28;20044;-84
2022/10/04 05:47:56;;;;;;;6.65;2.13;;;;;;;12.60;100.00;98935.47;2632075;28;20058;-85
2022/10/04 05:49:14;;;;;;;5.45;2.20;;;;;;;12.64;100.00;98928.38;2632858;28;20408;-85
2022/10/04 05:50:34;;;;;;;6.43;2.20;;;;;;;12.59;100.00;98930.28;2631338;28;21082;-85
2022/10/04 05:51:58;;;;;;;4.82;2.20;;;;;;;12.69;100.00;98936.97;2631028;28;20055;-84
2022/10/04 05:53:40;;;;;;;5.75;1.98;;;;;;;12.74;100.00;98942.97;2634258;28;20802;-85
2022/10/04 05:55:10;;;;;;;4.25;2.40;;;;;;;12.77;100.00;98945.50;2631609;28;20449;-84
2022/10/04 05:56:29;;;;;;;5.47;1.83;;;;;;;12.81;100.00;98939.25;2632600;28;20078;-84
2022/10/04 05:58:09;;;;;;;5.97;2.28;;;;;;;12.80;100.00;98945.41;2630872;28;20112;-84
2022/10/04 05:59:59;;;;;;;3.67;1.95;;;;;;;12.84;100.00;98941.78;2632482;28;20052;-84
2022/10/04 06:01:55;;;;;;;4.20;2.05;;;;;;;12.81;100.00;98944.50;2632823;28;20052;-84
2022/10/04 06:03:44;;;;;;;5.75;2.10;;;;;;;12.87;100.00;98947.88;2632711;28;20056;-84
2022/10/04 06:05:14;;;;;;;3.35;2.53;;;;;;;12.79;100.00;98950.72;2632370;28;20204;-88
2022/10/04 06:06:48;;;;;;;6.50;3.03;;;;;;;12.87;100.00;98947.88;2631701;28;20083;-85
2022/10/04 06:08:13;;;;;;;4.72;2.10;;;;;;;12.89;100.00;98941.66;2631689;28;20491;-84
2022/10/04 06:09:31;;;;;;;6.05;2.17;;;;;;;12.68;100.00;98944.00;2633081;28;20051;-84
2022/10/04 06:11:08;;;;;;;4.35;1.75;;;;;;;12.84;100.00;98944.41;2632404;28;20056;-85
2022/10/04 06:12:42;;;;;;;6.13;2.30;;;;;;;12.98;100.00;98945.78;2631764;28;20052;-83
2022/10/04 06:14:12;;;;;;;8.70;2.65;;;;;;;13.07;100.00;98947.28;2633017;28;21092;-85
2022/10/04 06:15:44;;;;;;;3.95;2.28;;;;;;;13.13;100.00;98950.59;2632970;28;20052;-84
2022/10/04 06:17:27;;;;;;;3.47;1.98;;;;;;;13.06;100.00;98954.31;2631310;28;20083;-84
2022/10/04 06:18:53;;;;;;;6.25;2.00;;;;;;;13.12;100.00;98961.16;2632031;28;20087;-86
2022/10/04 06:20:12;;;;;;;6.13;2.20;;;;;;;12.96;100.00;98958.97;2631224;28;20479;-84
2022/10/04 06:21:28;;;;;;;7.30;2.22;;;;;;;13.02;100.00;98957.94;2632682;28;20048;-84
2022/10/04 06:22:46;;;;;;;5.32;2.15;;;;;;;13.16;100.00;98948.78;2631966;28;20060;-85
2022/10/04 06:24:10;;;;;;;4.60;2.15;;;;;;;13.17;100.00;98947.88;2631688;28;20090;-84
2022/10/04 06:25:34;;;;;;;6.28;2.15;;;;;;;13.25;100.00;98953.72;2632126;28;20380;-84
2022/10/04 06:26:55;;;;;;;5.68;2.22;;;;;;;13.29;100.00;98955.38;2631572;28;20388;-84
2022/10/04 06:28:29;;;;;;;4.70;2.10;;;;;;;13.34;100.00;98958.72;2630589;28;20051;-88
2022/10/04 06:29:55;;;;;;;5.32;2.10;;;;;;;13.35;100.00;98960.44;2631146;28;20486;-84
2022/10/04 06:31:35;;;;;;;5.22;2.35;;;;;;;13.23;100.00;98961.69;2630979;28;20048;-84
2022/10/04 06:32:53;;;;;;;6.15;2.58;;;;;;;12.97;100.00;98955.44;2633962;28;20047;-85